Delphi, Indiana
Current Conditions -  °F | °C
As of 3:55 AM on Saturday 25 Oct 2014 (Local Time) from KMCX Reporting Station
Overcast Overcast  
Wind Chill: 55°   Ceiling: 3500
Heat Index: 55°   Visibility: 10mi
Dew Point: 53°   Wind: 6mph
Humidity: 92%   Direction: 200°SSW
Pressure: 29.94"   Gusts: NA
Location:  40.59°N, 86.68°W
Report Text: KMCX 250755Z AUTO 20005KT 10SM OVC035 13/12 A2994 RMK AO2 T01300117
Loading
Personal Weather Stations






























Interactive Weather Map
Tropical Storm Tracking
New forecast layout! Learn more

10-Day Weather Forecast

Advertisements
Track Severe Weather on mobile